Terminal Aerodrome Forecast
Issued by NWS

Home | Current Version | Previous Version | Text Only | Print | Product List | Glossary On
Versions: 1 2 3 4 5 6 7 8 9 10 11 12 13 14 15 16
000
FTUS45 KABQ 232339
TAFTCC
TAF
KTCC 232339Z 2400/2424 30010KT P6SM VCSH SCT080 BKN120
     FM240100 30008KT P6SM SCT080 BKN120
     FM240500 03006KT P6SM SCT080
     FM241500 15008KT P6SM SCT060
     FM242200 16008KT P6SM VCTS BKN080CB=

USA.gov is the U.S. government's official web portal to all federal, state and local government web resources and services.